createdAt,value
2022-09-18T00:00:22.083Z,1.73
2022-09-18T00:02:54.890Z,0.93
2022-09-18T00:05:29.068Z,1.38
2022-09-18T00:08:02.202Z,1.60
2022-09-18T00:10:35.073Z,0.85
2022-09-18T00:15:41.085Z,1.17
2022-09-18T00:20:47.705Z,0.85
2022-09-18T00:23:20.539Z,1.02
2022-09-18T00:25:53.409Z,1.13
2022-09-18T00:28:26.503Z,0.90
2022-09-18T00:33:37.668Z,0.80
2022-09-18T00:36:13.652Z,1.10
2022-09-18T00:38:48.373Z,1.27
2022-09-18T00:41:24.215Z,1.20
2022-09-18T00:44:33.971Z,1.17
2022-09-18T00:47:27.137Z,0.90
2022-09-18T00:50:10.914Z,1.05
2022-09-18T00:52:51.096Z,1.33
2022-09-18T00:55:28.301Z,0.85
2022-09-18T00:58:04.071Z,1.33
2022-09-18T01:00:37.169Z,1.10
2022-09-18T01:03:10.138Z,1.30
2022-09-18T01:06:06.894Z,1.20
2022-09-18T01:08:56.469Z,1.15
2022-09-18T01:11:38.103Z,1.08
2022-09-18T01:14:24.638Z,0.85
2022-09-18T01:17:09.061Z,1.23
2022-09-18T01:20:07.799Z,1.95
2022-09-18T01:22:55.866Z,1.40
2022-09-18T01:25:38.301Z,1.05
2022-09-18T01:28:20.368Z,0.85
2022-09-18T01:30:58.352Z,1.90
2022-09-18T01:33:38.435Z,1.27
2022-09-18T01:36:16.315Z,1.20
2022-09-18T01:38:53.195Z,1.52
2022-09-18T01:41:28.985Z,0.93
2022-09-18T01:44:10.444Z,1.25
2022-09-18T01:46:45.881Z,1.27
2022-09-18T01:49:24.511Z,1.10
2022-09-18T01:52:03.759Z,1.00
2022-09-18T01:54:39.897Z,1.95
2022-09-18T01:57:18.291Z,1.45
2022-09-18T01:59:58.627Z,1.23
2022-09-18T02:02:39.237Z,1.00
2022-09-18T02:05:17.235Z,1.38
2022-09-18T02:07:57.469Z,2.45
2022-09-18T02:10:34.750Z,1.45
2022-09-18T02:13:13.528Z,1.23
2022-09-18T02:15:50.599Z,1.25
2022-09-18T02:18:31.307Z,1.30
2022-09-18T02:21:09.564Z,1.10
2022-09-18T02:23:44.056Z,1.40
2022-09-18T02:26:19.998Z,1.20
2022-09-18T02:28:54.296Z,1.08
2022-09-18T02:31:29.332Z,0.95
2022-09-18T02:34:03.751Z,1.40
2022-09-18T02:36:52.642Z,1.20
2022-09-18T02:39:41.932Z,1.00
2022-09-18T02:42:28.054Z,1.33
2022-09-18T02:45:11.353Z,1.05
2022-09-18T02:48:00.449Z,1.25
2022-09-18T02:50:45.394Z,0.95
2022-09-18T02:53:26.855Z,0.77
2022-09-18T02:56:04.117Z,0.70
2022-09-18T02:58:44.885Z,0.98
2022-09-18T03:01:21.116Z,1.08
2022-09-18T03:03:56.907Z,0.85
2022-09-18T03:06:43.018Z,0.77
2022-09-18T03:09:17.112Z,0.77
2022-09-18T03:11:50.342Z,0.90
2022-09-18T03:14:25.358Z,1.17
2022-09-18T03:19:32.154Z,0.90
2022-09-18T03:22:06.546Z,1.20
2022-09-18T03:24:42.303Z,0.90
2022-09-18T03:29:48.146Z,1.15
2022-09-18T03:32:23.609Z,0.90
2022-09-18T03:35:01.229Z,1.00
2022-09-18T03:37:34.698Z,1.20
2022-09-18T03:40:10.486Z,1.00
2022-09-18T03:42:44.220Z,1.25
2022-09-18T03:45:20.739Z,1.15
2022-09-18T03:47:53.571Z,1.00
2022-09-18T03:50:30.693Z,0.82
2022-09-18T03:53:04.810Z,0.70
2022-09-18T03:56:13.605Z,0.70
2022-09-18T03:59:04.644Z,0.70
2022-09-18T04:01:48.417Z,0.90
2022-09-18T04:04:33.011Z,1.02
2022-09-18T04:07:25.238Z,0.88
2022-09-18T04:10:00.650Z,1.10
2022-09-18T04:12:33.564Z,0.70
2022-09-18T04:15:20.883Z,2.45
2022-09-18T04:17:53.613Z,1.10
2022-09-18T04:20:26.686Z,0.70
2022-09-18T04:23:00.936Z,0.80
2022-09-18T04:25:33.962Z,1.00
2022-09-18T04:28:07.343Z,0.98
2022-09-18T04:30:45.013Z,1.23
2022-09-18T04:33:18.035Z,1.88
2022-09-18T04:35:54.064Z,1.17
2022-09-18T04:38:29.758Z,1.20
2022-09-18T04:41:03.019Z,0.77
2022-09-18T04:43:36.450Z,1.05
2022-09-18T04:46:11.360Z,0.93
2022-09-18T04:48:49.246Z,0.63
2022-09-18T04:51:23.188Z,0.88
2022-09-18T04:53:58.714Z,0.88
2022-09-18T04:56:31.755Z,0.88
2022-09-18T04:59:04.942Z,0.82
2022-09-18T05:01:38.843Z,1.08
2022-09-18T05:04:18.017Z,0.70
2022-09-18T05:07:11.551Z,1.02
2022-09-18T05:09:53.486Z,0.85
2022-09-18T05:12:26.527Z,0.68
2022-09-18T05:17:35.514Z,1.10
2022-09-18T05:20:11.816Z,0.88
2022-09-18T05:22:47.100Z,1.00
2022-09-18T05:25:29.006Z,0.70
2022-09-18T05:28:03.758Z,1.00
2022-09-18T05:30:46.247Z,1.10
2022-09-18T05:33:20.052Z,1.08
2022-09-18T05:35:55.052Z,0.82
2022-09-18T05:38:28.478Z,0.77
2022-09-18T05:41:03.948Z,0.80
2022-09-18T05:43:36.759Z,0.95
2022-09-18T05:46:14.736Z,1.13
2022-09-18T05:49:01.382Z,1.25
2022-09-18T05:54:07.654Z,0.73
2022-09-18T05:56:48.203Z,0.47
2022-09-18T05:59:20.873Z,0.70
2022-09-18T06:01:54.637Z,1.48
2022-09-18T06:04:32.829Z,0.70
2022-09-18T06:07:11.627Z,0.50
2022-09-18T06:09:44.489Z,1.50
2022-09-18T06:12:21.198Z,0.50
2022-09-18T06:14:55.098Z,0.77
2022-09-18T06:17:27.912Z,0.73
2022-09-18T06:20:06.274Z,0.68
2022-09-18T06:22:39.159Z,0.95
2022-09-18T06:25:16.704Z,0.60
2022-09-18T06:27:54.548Z,1.00
2022-09-18T06:30:28.187Z,1.08
2022-09-18T06:33:02.009Z,1.08
2022-09-18T06:35:35.585Z,0.68
2022-09-18T06:38:09.361Z,0.88
2022-09-18T06:40:51.688Z,0.98
2022-09-18T06:43:31.184Z,0.60
2022-09-18T06:46:23.550Z,0.75
2022-09-18T06:48:56.873Z,0.57
2022-09-18T06:51:29.527Z,0.93
2022-09-18T06:54:21.304Z,0.75
2022-09-18T06:56:55.911Z,0.90
2022-09-18T06:59:30.083Z,0.82
2022-09-18T07:02:02.778Z,1.00
2022-09-18T07:04:54.357Z,0.73
2022-09-18T07:07:27.322Z,1.65
2022-09-18T07:10:03.667Z,0.80
2022-09-18T07:12:48.239Z,1.08
2022-09-18T07:15:26.078Z,0.60
2022-09-18T07:18:00.171Z,0.80
2022-09-18T07:20:34.522Z,1.52
2022-09-18T07:23:07.677Z,1.05
2022-09-18T07:25:49.558Z,1.00
2022-09-18T07:28:22.576Z,1.30
2022-09-18T07:31:06.035Z,1.02
2022-09-18T07:33:40.434Z,0.88
2022-09-18T07:36:14.085Z,1.02
2022-09-18T07:38:50.673Z,0.80
2022-09-18T07:41:24.655Z,1.10
2022-09-18T07:43:57.446Z,1.33
2022-09-18T07:46:34.039Z,0.90
2022-09-18T07:49:09.914Z,0.88
2022-09-18T07:51:42.836Z,0.80
2022-09-18T07:54:16.462Z,1.40
2022-09-18T07:57:01.284Z,0.95
2022-09-18T07:59:41.810Z,1.50
2022-09-18T08:02:17.401Z,0.68
2022-09-18T08:04:50.146Z,0.95
2022-09-18T08:07:28.454Z,0.73
2022-09-18T08:10:15.705Z,1.27
2022-09-18T08:13:05.398Z,0.70
2022-09-18T08:15:57.845Z,0.75
2022-09-18T08:18:40.571Z,0.85
2022-09-18T08:21:32.189Z,0.68
2022-09-18T08:24:08.033Z,0.95
2022-09-18T08:26:41.712Z,0.70
2022-09-18T08:29:19.122Z,0.70
2022-09-18T08:31:58.506Z,1.88
2022-09-18T08:34:32.633Z,1.38
2022-09-18T08:37:05.561Z,0.98
2022-09-18T08:39:57.338Z,0.68
2022-09-18T08:42:55.501Z,0.70
2022-09-18T08:45:42.982Z,0.70
2022-09-18T08:48:20.732Z,0.80
2022-09-18T08:51:01.504Z,0.90
2022-09-18T08:53:37.190Z,0.82
2022-09-18T08:56:31.115Z,0.77
2022-09-18T08:59:37.943Z,0.85
2022-09-18T09:02:28.766Z,0.65
2022-09-18T09:05:07.088Z,0.95
2022-09-18T09:07:57.736Z,1.33
2022-09-18T09:10:40.840Z,0.90
2022-09-18T09:13:38.054Z,1.10
2022-09-18T09:16:17.010Z,1.45
2022-09-18T09:19:00.626Z,2.08
2022-09-18T09:21:54.313Z,1.40
2022-09-18T09:24:33.379Z,1.50
2022-09-18T09:27:29.227Z,1.08
2022-09-18T09:30:21.610Z,1.45
2022-09-18T09:33:37.686Z,1.10
2022-09-18T09:36:37.787Z,0.90
2022-09-18T09:39:22.608Z,1.38
2022-09-18T09:42:03.235Z,1.42
2022-09-18T09:44:40.286Z,1.40
2022-09-18T09:47:32.994Z,1.40
2022-09-18T09:50:26.796Z,0.90
2022-09-18T09:53:03.639Z,1.10
2022-09-18T09:55:45.942Z,1.42
2022-09-18T09:58:35.003Z,1.08
2022-09-18T10:01:15.139Z,0.95
2022-09-18T10:03:59.016Z,0.93
2022-09-18T10:06:45.228Z,1.13
2022-09-18T10:09:26.326Z,0.82
2022-09-18T10:12:04.949Z,0.98
2022-09-18T10:14:47.431Z,1.33
2022-09-18T10:17:22.233Z,1.80
2022-09-18T10:19:56.341Z,1.33
2022-09-18T10:22:29.857Z,1.20
2022-09-18T10:25:13.356Z,1.00
2022-09-18T10:27:46.090Z,1.38
2022-09-18T10:32:59.726Z,1.33
2022-09-18T10:35:45.921Z,1.00
2022-09-18T10:38:33.344Z,0.80
2022-09-18T10:41:25.232Z,1.30
2022-09-18T10:44:07.108Z,1.23
2022-09-18T10:46:53.544Z,1.38
2022-09-18T10:49:31.482Z,0.90
2022-09-18T10:52:35.103Z,2.15
2022-09-18T10:55:33.870Z,1.45
2022-09-18T10:58:15.105Z,1.20
2022-09-18T11:01:02.726Z,1.60
2022-09-18T11:03:42.572Z,1.10
2022-09-18T11:06:24.213Z,1.42
2022-09-18T11:09:01.605Z,1.17
2022-09-18T11:11:39.621Z,1.35
2022-09-18T11:14:24.770Z,0.90
2022-09-18T11:17:05.206Z,1.08
2022-09-18T11:19:52.388Z,1.38
2022-09-18T11:22:38.396Z,1.38
2022-09-18T11:25:24.680Z,1.25
2022-09-18T11:28:01.558Z,1.20
2022-09-18T11:30:40.795Z,1.20
2022-09-18T11:33:25.002Z,1.30
2022-09-18T11:36:06.706Z,0.88
2022-09-18T11:38:44.214Z,1.13
2022-09-18T11:41:24.246Z,1.10
2022-09-18T11:44:02.763Z,1.25
2022-09-18T11:46:50.391Z,1.10
2022-09-18T11:49:29.445Z,1.30
2022-09-18T11:52:16.066Z,1.10
2022-09-18T11:54:59.196Z,1.27
2022-09-18T11:57:38.688Z,0.90
2022-09-18T12:00:18.682Z,0.82
2022-09-18T12:03:07.294Z,1.20
2022-09-18T12:05:53.452Z,0.80
2022-09-18T12:08:44.772Z,0.90
2022-09-18T12:14:05.154Z,1.30
2022-09-18T12:16:52.970Z,0.90
2022-09-18T12:19:33.898Z,0.90
2022-09-18T12:22:13.681Z,1.00
2022-09-18T12:24:49.062Z,1.30
2022-09-18T12:27:36.066Z,1.17
2022-09-18T12:30:12.731Z,1.25
2022-09-18T12:33:05.995Z,0.85
2022-09-18T12:35:54.092Z,1.10
2022-09-18T12:38:41.867Z,0.88
2022-09-18T12:41:34.250Z,1.20
2022-09-18T12:44:27.003Z,0.75
2022-09-18T12:47:13.541Z,0.80
2022-09-18T12:50:08.766Z,1.02
2022-09-18T12:53:09.135Z,0.85
2022-09-18T12:56:12.698Z,1.10
2022-09-18T12:59:07.326Z,0.95
2022-09-18T13:01:46.958Z,1.20
2022-09-18T13:04:26.277Z,1.10
2022-09-18T13:07:04.543Z,1.10
2022-09-18T13:09:44.745Z,1.63
2022-09-18T13:12:22.963Z,1.23
2022-09-18T13:15:02.419Z,1.02
2022-09-18T13:17:38.962Z,1.20
2022-09-18T13:20:18.057Z,1.48
2022-09-18T13:22:54.029Z,1.27
2022-09-18T13:25:31.557Z,1.88
2022-09-18T13:28:08.703Z,1.27
2022-09-18T13:30:43.750Z,1.63
2022-09-18T13:33:24.942Z,1.45
2022-09-18T13:35:59.274Z,1.25
2022-09-18T13:38:34.354Z,1.20
2022-09-18T13:41:10.110Z,1.10
2022-09-18T13:43:46.353Z,1.08
2022-09-18T13:46:34.017Z,1.73
2022-09-18T13:49:29.956Z,1.40
2022-09-18T13:52:28.505Z,1.48
2022-09-18T13:55:02.276Z,1.02
2022-09-18T13:57:35.080Z,1.00
2022-09-18T14:00:39.897Z,1.10
2022-09-18T14:03:37.266Z,1.05
2022-09-18T14:06:43.387Z,1.23
2022-09-18T14:09:28.488Z,1.42
2022-09-18T14:12:12.374Z,1.30
2022-09-18T14:14:57.168Z,1.15
2022-09-18T14:17:31.867Z,1.15
2022-09-18T14:20:19.496Z,1.10
2022-09-18T14:22:52.645Z,1.65
2022-09-18T14:25:45.535Z,1.30
2022-09-18T14:28:21.540Z,1.20
2022-09-18T14:31:28.238Z,1.08
2022-09-18T14:34:04.444Z,1.42
2022-09-18T14:36:46.430Z,1.52
2022-09-18T14:39:26.291Z,1.88
2022-09-18T14:42:02.882Z,1.30
2022-09-18T14:44:37.906Z,1.90
2022-09-18T14:47:21.588Z,1.92
2022-09-18T14:49:54.733Z,1.50
2022-09-18T14:52:30.802Z,1.77
2022-09-18T14:55:11.903Z,2.05
2022-09-18T14:57:48.421Z,1.70
2022-09-18T15:00:25.547Z,2.10
2022-09-18T15:03:01.346Z,1.40
2022-09-18T15:05:34.673Z,1.67
2022-09-18T15:08:17.879Z,1.35
2022-09-18T15:10:53.856Z,1.65
2022-09-18T15:13:27.096Z,1.13
2022-09-18T15:16:01.908Z,3.30
2022-09-18T15:18:45.260Z,14.80
2022-09-18T15:23:58.277Z,17.90
2022-09-18T15:26:36.099Z,14.25
2022-09-18T15:29:19.340Z,10.90
2022-09-18T15:31:53.264Z,12.43
2022-09-18T15:34:30.025Z,11.45
2022-09-18T15:37:05.459Z,10.05
2022-09-18T15:39:42.551Z,8.57
2022-09-18T15:42:27.888Z,7.38
2022-09-18T15:45:19.658Z,6.47
2022-09-18T15:47:53.465Z,5.80
2022-09-18T15:50:34.356Z,5.38
2022-09-18T15:53:31.161Z,5.60
2022-09-18T15:56:09.341Z,4.80
2022-09-18T15:58:45.875Z,4.20
2022-09-18T16:01:25.921Z,3.33
2022-09-18T16:04:08.764Z,3.35
2022-09-18T16:06:49.263Z,3.08
2022-09-18T16:09:37.369Z,3.20
2022-09-18T16:12:35.837Z,2.28
2022-09-18T16:15:18.555Z,2.30
2022-09-18T16:18:03.937Z,2.03
2022-09-18T16:20:41.453Z,1.90
2022-09-18T16:23:25.659Z,2.20
2022-09-18T16:26:05.815Z,1.92
2022-09-18T16:28:43.079Z,1.80
2022-09-18T16:31:19.195Z,1.38
2022-09-18T16:33:57.092Z,1.83
2022-09-18T16:36:33.226Z,1.35
2022-09-18T16:39:09.210Z,1.45
2022-09-18T16:41:42.650Z,1.45
2022-09-18T16:44:18.788Z,1.13
2022-09-18T16:46:55.277Z,1.60
2022-09-18T16:49:31.563Z,1.00
2022-09-18T16:52:04.796Z,1.20
2022-09-18T16:54:38.521Z,1.00
2022-09-18T16:57:13.812Z,1.15
2022-09-18T16:59:49.997Z,1.17
2022-09-18T17:02:25.958Z,1.10
2022-09-18T17:05:01.740Z,1.20
2022-09-18T17:07:37.681Z,1.10
2022-09-18T17:10:12.734Z,0.98
2022-09-18T17:12:53.373Z,0.82
2022-09-18T17:15:28.102Z,1.10
2022-09-18T17:18:05.491Z,1.30
2022-09-18T17:20:38.649Z,1.05
2022-09-18T17:23:11.738Z,1.15
2022-09-18T17:28:20.196Z,1.55
2022-09-18T17:30:55.148Z,1.00
2022-09-18T17:33:28.577Z,1.30
2022-09-18T17:36:05.104Z,1.38
2022-09-18T17:38:39.263Z,1.45
2022-09-18T17:41:14.969Z,1.20
2022-09-18T17:43:53.716Z,1.85
2022-09-18T17:46:30.317Z,1.80
2022-09-18T17:49:03.762Z,1.48
2022-09-18T17:51:37.120Z,1.45
2022-09-18T17:54:23.413Z,1.33
2022-09-18T17:56:57.390Z,1.90
2022-09-18T18:02:05.196Z,1.38
2022-09-18T18:04:38.841Z,1.75
2022-09-18T18:07:12.169Z,1.33
2022-09-18T18:09:46.644Z,1.65
2022-09-18T18:12:19.764Z,1.48
2022-09-18T18:17:38.159Z,1.80
2022-09-18T18:22:43.810Z,1.20
2022-09-18T18:25:16.739Z,2.03
2022-09-18T18:30:24.107Z,1.60
2022-09-18T18:32:58.376Z,2.03
2022-09-18T18:35:31.340Z,2.00
2022-09-18T18:40:38.918Z,2.05
2022-09-18T18:43:14.785Z,2.40
2022-09-18T18:45:52.479Z,1.27
2022-09-18T18:48:26.688Z,2.40
2022-09-18T18:50:59.903Z,1.73
2022-09-18T18:53:33.253Z,1.90
2022-09-18T18:56:07.824Z,1.20
2022-09-18T18:58:41.102Z,1.75
2022-09-18T19:01:16.344Z,1.40
2022-09-18T19:03:54.630Z,2.00
2022-09-18T19:06:28.202Z,1.23
2022-09-18T19:09:03.222Z,1.77
2022-09-18T19:11:42.816Z,1.92
2022-09-18T19:14:18.072Z,1.85
2022-09-18T19:16:52.338Z,1.48
2022-09-18T19:19:29.266Z,1.40
2022-09-18T19:22:02.179Z,1.55
2022-09-18T19:27:07.951Z,1.88
2022-09-18T19:29:41.941Z,1.83
2022-09-18T19:32:17.668Z,1.45
2022-09-18T19:34:52.570Z,2.33
2022-09-18T19:37:25.709Z,1.50
2022-09-18T19:39:59.802Z,2.10
2022-09-18T19:42:33.032Z,1.35
2022-09-18T19:45:06.959Z,1.35
2022-09-18T19:47:46.436Z,2.42
2022-09-18T19:50:26.169Z,2.08
2022-09-18T19:53:01.940Z,2.05
2022-09-18T19:55:36.268Z,2.25
2022-09-18T19:58:15.196Z,2.28
2022-09-18T20:00:49.991Z,1.45
2022-09-18T20:03:22.951Z,1.90
2022-09-18T20:06:01.016Z,1.50
2022-09-18T20:08:33.923Z,1.42
2022-09-18T20:11:06.932Z,1.70
2022-09-18T20:13:39.823Z,1.88
2022-09-18T20:16:13.770Z,3.75
2022-09-18T20:18:47.640Z,1.95
2022-09-18T20:21:22.036Z,2.13
2022-09-18T20:23:57.495Z,1.70
2022-09-18T20:26:30.668Z,2.03
2022-09-18T20:29:06.211Z,3.00
2022-09-18T20:31:39.448Z,2.38
2022-09-18T20:34:15.725Z,2.45
2022-09-18T20:36:52.148Z,1.58
2022-09-18T20:39:25.422Z,1.90
2022-09-18T20:42:04.894Z,2.65
2022-09-18T20:44:42.571Z,1.38
2022-09-18T20:47:18.154Z,1.80
2022-09-18T20:49:53.685Z,1.80
2022-09-18T20:52:29.320Z,2.55
2022-09-18T20:55:02.805Z,1.95
2022-09-18T20:57:45.391Z,1.70
2022-09-18T21:00:29.759Z,1.63
2022-09-18T21:03:02.944Z,1.95
2022-09-18T21:05:37.245Z,1.85
2022-09-18T21:08:11.639Z,1.52
2022-09-18T21:10:47.660Z,2.33
2022-09-18T21:13:20.692Z,1.63
2022-09-18T21:15:53.720Z,2.00
2022-09-18T21:18:27.101Z,1.65
2022-09-18T21:21:03.806Z,2.00
2022-09-18T21:23:56.127Z,2.72
2022-09-18T21:26:31.682Z,2.25
2022-09-18T21:29:08.507Z,2.15
2022-09-18T21:31:43.213Z,2.38
2022-09-18T21:34:23.765Z,2.22
2022-09-18T21:36:58.632Z,2.33
2022-09-18T21:39:33.793Z,1.35
2022-09-18T21:42:08.430Z,1.92
2022-09-18T21:44:41.305Z,2.38
2022-09-18T21:47:14.277Z,1.35
2022-09-18T21:49:47.160Z,1.60
2022-09-18T21:52:19.934Z,1.63
2022-09-18T21:54:54.018Z,1.63
2022-09-18T21:57:26.757Z,1.48
2022-09-18T21:59:59.514Z,1.88
2022-09-18T22:02:32.269Z,2.15
2022-09-18T22:05:11.598Z,1.92
2022-09-18T22:07:44.930Z,1.30
2022-09-18T22:10:19.375Z,1.77
2022-09-18T22:12:57.132Z,1.60
2022-09-18T22:15:30.223Z,1.55
2022-09-18T22:20:36.684Z,2.28
2022-09-18T22:23:09.416Z,1.70
2022-09-18T22:25:43.601Z,1.20
2022-09-18T22:28:16.466Z,2.95
2022-09-18T22:30:49.287Z,1.83
2022-09-18T22:33:22.458Z,2.10
2022-09-18T22:35:55.248Z,2.72
2022-09-18T22:38:27.963Z,2.33
2022-09-18T22:41:04.559Z,1.90
2022-09-18T22:43:37.928Z,1.80
2022-09-18T22:46:13.048Z,2.67
2022-09-18T22:48:45.980Z,1.80
2022-09-18T22:51:20.764Z,2.10
2022-09-18T22:53:56.065Z,1.80
2022-09-18T22:56:30.594Z,1.70
2022-09-18T22:59:04.076Z,1.83
2022-09-18T23:01:39.309Z,2.47
2022-09-18T23:04:12.384Z,1.33
2022-09-18T23:06:48.756Z,1.75
2022-09-18T23:09:22.171Z,1.60
2022-09-18T23:11:57.143Z,2.42
2022-09-18T23:14:31.423Z,3.13
2022-09-18T23:17:04.221Z,1.42
2022-09-18T23:19:37.060Z,1.98
2022-09-18T23:22:12.185Z,2.53
2022-09-18T23:24:44.853Z,1.75
2022-09-18T23:27:20.622Z,2.10
2022-09-18T23:29:53.417Z,2.38
2022-09-18T23:32:26.170Z,1.80
2022-09-18T23:34:58.978Z,1.58
2022-09-18T23:37:31.762Z,1.67
2022-09-18T23:40:05.063Z,1.85
2022-09-18T23:42:39.620Z,2.53
2022-09-18T23:45:12.359Z,1.67
2022-09-18T23:47:45.353Z,1.58
2022-09-18T23:52:52.933Z,1.73
2022-09-18T23:55:27.136Z,2.20
2022-09-18T23:58:01.300Z,1.27
